Time;durP1;ratioP1;P1;durP2;ratioP2;P2;SDS_P1;SDS_P2;PMS_P1;PMS_P2;Temp;Humidity;BMP_temperature;BMP_pressure;BME280_temperature;BME280_humidity;BME280_pressure;Samples;Min_cycle;Max_cycle;Signal;HPM_P1;HPM_P2
2022/03/03 00:02:25;;;;;;;8.93;7.72;;;;;;;;;;4968005;28;20201;-71
2022/03/03 00:04:52;;;;;;;11.25;7.63;;;;;;;;;;4967276;28;21742;-72
2022/03/03 00:07:21;;;;;;;12.30;8.65;;;;;;;;;;4968631;28;20221;-72
2022/03/03 00:09:48;;;;;;;13.68;8.65;;;;;;;;;;4974206;28;20206;-72
2022/03/03 00:12:15;;;;;;;11.57;7.35;;;;;;;;;;4973424;28;20194;-71
2022/03/03 00:14:42;;;;;;;10.52;7.60;;;;;;;;;;4974276;28;20675;-72
2022/03/03 00:17:09;;;;;;;9.00;7.60;;;;;;;;;;4972814;28;20553;-72
2022/03/03 00:19:36;;;;;;;10.32;8.32;;;;;;;;;;4975516;28;20653;-78
2022/03/03 00:22:03;;;;;;;17.63;9.05;;;;;;;;;;4969194;28;20193;-78
2022/03/03 00:24:32;;;;;;;9.52;7.72;;;;;;;;;;4975923;28;20221;-79
2022/03/03 00:26:59;;;;;;;9.10;8.05;;;;;;;;;;4971819;28;20197;-78
2022/03/03 00:29:26;;;;;;;10.40;7.72;;;;;;;;;;4969596;28;20205;-77
2022/03/03 00:31:53;;;;;;;12.48;8.43;;;;;;;;;;4968256;28;20202;-77
2022/03/03 00:34:20;;;;;;;10.40;8.55;;;;;;;;;;4966736;28;20201;-77
2022/03/03 00:36:47;;;;;;;11.05;8.60;;;;;;;;;;4967309;28;20206;-78
2022/03/03 00:39:14;;;;;;;10.82;7.97;;;;;;;;;;4971994;28;20672;-72
2022/03/03 00:41:43;;;;;;;8.32;7.22;;;;;;;;;;4963783;28;20657;-72
2022/03/03 00:44:10;;;;;;;10.10;7.97;;;;;;;;;;4966802;28;20201;-73
2022/03/03 00:46:37;;;;;;;16.10;8.80;;;;;;;;;;4969033;28;20720;-72
2022/03/03 00:49:04;;;;;;;10.60;8.25;;;;;;;;;;4963572;28;20205;-72
2022/03/03 00:51:31;;;;;;;10.75;9.60;;;;;;;;;;4963305;28;20212;-72
2022/03/03 00:53:59;;;;;;;12.98;9.18;;;;;;;;;;4972385;28;20212;-72
2022/03/03 00:56:26;;;;;;;13.65;8.10;;;;;;;;;;4970365;28;20205;-72
2022/03/03 00:58:54;;;;;;;11.68;7.43;;;;;;;;;;4973837;28;20206;-71
2022/03/03 01:01:21;;;;;;;10.27;8.00;;;;;;;;;;4967159;28;20224;-71
2022/03/03 01:03:48;;;;;;;8.70;7.80;;;;;;;;;;4966839;28;20581;-72
2022/03/03 01:06:15;;;;;;;9.98;7.97;;;;;;;;;;4969033;28;20724;-72
2022/03/03 01:08:42;;;;;;;10.52;8.05;;;;;;;;;;4967445;28;20202;-72
2022/03/03 01:11:10;;;;;;;11.40;8.30;;;;;;;;;;4972281;28;20325;-72
2022/03/03 01:13:37;;;;;;;10.20;8.65;;;;;;;;;;4970562;28;20213;-72
2022/03/03 01:16:06;;;;;;;10.93;9.02;;;;;;;;;;4971747;28;20197;-71
2022/03/03 01:18:33;;;;;;;13.48;8.70;;;;;;;;;;4965012;28;20542;-71
2022/03/03 01:21:00;;;;;;;12.13;8.45;;;;;;;;;;4972734;28;20198;-72
2022/03/03 01:23:27;;;;;;;12.30;8.50;;;;;;;;;;4971819;28;20218;-71
2022/03/03 01:25:54;;;;;;;9.77;8.07;;;;;;;;;;4964106;28;20269;-71
2022/03/03 01:28:21;;;;;;;9.65;7.90;;;;;;;;;;4970327;28;20198;-71
2022/03/03 01:30:48;;;;;;;10.50;7.15;;;;;;;;;;4970799;28;20208;-72
2022/03/03 01:33:16;;;;;;;11.23;8.57;;;;;;;;;;4972894;28;20194;-71
2022/03/03 01:35:44;;;;;;;10.90;9.25;;;;;;;;;;4965426;28;20205;-72
2022/03/03 01:38:11;;;;;;;11.30;8.30;;;;;;;;;;4971141;28;20205;-72
2022/03/03 01:40:38;;;;;;;9.75;8.75;;;;;;;;;;4973455;28;20197;-72
2022/03/03 01:43:05;;;;;;;8.55;7.65;;;;;;;;;;4969267;28;20193;-72
2022/03/03 01:45:32;;;;;;;9.40;8.18;;;;;;;;;;4969454;28;20226;-72
2022/03/03 01:48:00;;;;;;;9.45;8.00;;;;;;;;;;4969831;28;20296;-72
2022/03/03 01:50:28;;;;;;;11.10;8.85;;;;;;;;;;4971426;28;20197;-72
2022/03/03 01:52:55;;;;;;;10.27;7.65;;;;;;;;;;4970620;28;20205;-71
2022/03/03 01:55:23;;;;;;;9.48;7.95;;;;;;;;;;4969490;28;20349;-72
2022/03/03 01:57:50;;;;;;;8.73;7.82;;;;;;;;;;4960389;28;20194;-71
2022/03/03 02:00:18;;;;;;;10.27;7.47;;;;;;;;;;4961642;28;20198;-73
2022/03/03 02:02:45;;;;;;;9.55;8.55;;;;;;;;;;4971624;28;20201;-72
2022/03/03 02:05:12;;;;;;;10.85;8.02;;;;;;;;;;4968704;28;20224;-72
2022/03/03 02:07:41;;;;;;;10.38;7.35;;;;;;;;;;4963493;28;20786;-71
2022/03/03 02:10:08;;;;;;;7.70;6.90;;;;;;;;;;4968032;28;20248;-71
2022/03/03 02:12:35;;;;;;;13.52;9.32;;;;;;;;;;4969484;28;20205;-71
2022/03/03 02:15:02;;;;;;;11.82;9.25;;;;;;;;;;4958558;28;20194;-71
2022/03/03 02:17:29;;;;;;;10.70;7.95;;;;;;;;;;4965872;28;20205;-71
2022/03/03 02:19:57;;;;;;;10.15;8.55;;;;;;;;;;4968342;28;20232;-71
2022/03/03 02:22:25;;;;;;;11.50;8.75;;;;;;;;;;4959410;28;20201;-71
2022/03/03 02:24:52;;;;;;;8.05;7.25;;;;;;;;;;4960769;28;20213;-71
2022/03/03 02:27:19;;;;;;;10.82;7.53;;;;;;;;;;4964716;28;20201;-72
2022/03/03 02:29:46;;;;;;;12.70;8.82;;;;;;;;;;4968193;28;20240;-71
2022/03/03 02:32:14;;;;;;;8.90;7.80;;;;;;;;;;4962101;28;20209;-72
2022/03/03 02:34:47;;;;;;;9.80;7.78;;;;;;;;;;4966269;28;20205;-72
2022/03/03 02:37:14;;;;;;;9.60;7.35;;;;;;;;;;4964962;28;20540;-71
2022/03/03 02:39:43;;;;;;;11.68;8.90;;;;;;;;;;4967672;28;20201;-72
2022/03/03 02:42:10;;;;;;;10.70;7.70;;;;;;;;;;4978969;28;20193;-71
2022/03/03 02:44:37;;;;;;;10.63;8.35;;;;;;;;;;4976155;28;20227;-72
2022/03/03 02:47:04;;;;;;;11.13;8.73;;;;;;;;;;4968594;28;20723;-72
2022/03/03 02:49:31;;;;;;;11.05;8.77;;;;;;;;;;4968678;28;20264;-72
2022/03/03 02:51:58;;;;;;;10.93;7.80;;;;;;;;;;4968842;28;20217;-72
2022/03/03 02:54:26;;;;;;;11.98;8.85;;;;;;;;;;4963113;28;20197;-72
2022/03/03 02:59:39;;;;;;;9.32;8.40;;;;;;;;;;4964184;28;20216;-72
2022/03/03 03:02:06;;;;;;;11.65;8.70;;;;;;;;;;4964190;28;20206;-71
2022/03/03 03:04:33;;;;;;;10.00;8.80;;;;;;;;;;4966918;28;20252;-72
2022/03/03 03:07:00;;;;;;;11.40;7.57;;;;;;;;;;4964780;28;20221;-72
2022/03/03 03:09:27;;;;;;;11.23;8.80;;;;;;;;;;4966791;28;20198;-71
2022/03/03 03:11:55;;;;;;;7.82;6.93;;;;;;;;;;4968193;28;21312;-71
2022/03/03 03:14:22;;;;;;;8.30;7.50;;;;;;;;;;4965117;28;20597;-72
2022/03/03 03:16:49;;;;;;;14.57;8.52;;;;;;;;;;4960707;28;20208;-72
2022/03/03 03:19:16;;;;;;;9.00;7.32;;;;;;;;;;4971290;28;20197;-72
2022/03/03 03:21:43;;;;;;;11.23;8.25;;;;;;;;;;4964203;28;20190;-72
2022/03/03 03:24:10;;;;;;;11.75;8.40;;;;;;;;;;4964583;28;20225;-73
2022/03/03 03:26:38;;;;;;;9.23;7.22;;;;;;;;;;4966211;28;20236;-72
2022/03/03 03:29:06;;;;;;;10.23;7.57;;;;;;;;;;4965879;28;20668;-72
2022/03/03 03:31:33;;;;;;;12.98;8.73;;;;;;;;;;4968384;28;20658;-72
2022/03/03 03:34:00;;;;;;;10.48;8.50;;;;;;;;;;4968395;28;20260;-72
2022/03/03 03:36:27;;;;;;;11.45;8.65;;;;;;;;;;4969181;28;20614;-72
2022/03/03 03:38:54;;;;;;;11.80;8.02;;;;;;;;;;4967068;28;20198;-73
2022/03/03 03:41:21;;;;;;;9.02;7.43;;;;;;;;;;4973092;28;20245;-72
2022/03/03 03:43:48;;;;;;;9.75;7.82;;;;;;;;;;4970649;28;20197;-73
2022/03/03 03:46:17;;;;;;;9.75;7.30;;;;;;;;;;4971410;28;20222;-73
2022/03/03 03:48:44;;;;;;;11.82;8.48;;;;;;;;;;4970075;28;20205;-73
2022/03/03 03:51:11;;;;;;;9.32;7.45;;;;;;;;;;4974214;28;20610;-72
2022/03/03 03:53:38;;;;;;;9.48;8.10;;;;;;;;;;4967254;28;20205;-73
2022/03/03 03:56:05;;;;;;;10.52;7.97;;;;;;;;;;4970168;28;20252;-71
2022/03/03 03:58:32;;;;;;;10.73;7.38;;;;;;;;;;4972822;28;20197;-71
2022/03/03 04:00:59;;;;;;;8.90;7.80;;;;;;;;;;4969285;28;20205;-72
2022/03/03 04:03:28;;;;;;;9.73;7.97;;;;;;;;;;4970625;28;20260;-71
2022/03/03 04:05:55;;;;;;;8.70;7.55;;;;;;;;;;4974438;28;20225;-71
2022/03/03 04:08:22;;;;;;;11.35;8.40;;;;;;;;;;4971456;28;20722;-71
2022/03/03 04:10:49;;;;;;;12.80;8.30;;;;;;;;;;4969284;28;20253;-72
2022/03/03 04:13:16;;;;;;;12.95;8.45;;;;;;;;;;4972208;28;20202;-71
2022/03/03 04:15:43;;;;;;;9.50;8.52;;;;;;;;;;4968225;28;20677;-71
2022/03/03 04:18:10;;;;;;;9.50;7.03;;;;;;;;;;4970574;28;20604;-70
2022/03/03 04:20:39;;;;;;;9.15;8.00;;;;;;;;;;4972838;28;20288;-71
2022/03/03 04:23:06;;;;;;;9.80;8.20;;;;;;;;;;4968762;28;20202;-70
2022/03/03 04:25:33;;;;;;;12.52;7.80;;;;;;;;;;4972940;28;20202;-71
2022/03/03 04:28:02;;;;;;;12.07;8.07;;;;;;;;;;4983300;28;20295;-71
2022/03/03 04:30:30;;;;;;;8.90;7.55;;;;;;;;;;4966599;28;20301;-71
2022/03/03 04:32:57;;;;;;;11.00;7.78;;;;;;;;;;4969968;28;20275;-70
2022/03/03 04:35:24;;;;;;;10.10;7.60;;;;;;;;;;4978573;28;20252;-70
2022/03/03 04:37:53;;;;;;;10.05;8.40;;;;;;;;;;4969400;28;20252;-71
2022/03/03 04:40:20;;;;;;;12.73;8.25;;;;;;;;;;4969671;28;20550;-71
2022/03/03 04:42:47;;;;;;;11.52;7.60;;;;;;;;;;4973773;28;20238;-71
2022/03/03 04:45:14;;;;;;;14.30;8.98;;;;;;;;;;4967889;28;20288;-70
2022/03/03 04:47:41;;;;;;;9.82;7.45;;;;;;;;;;4964322;28;20221;-71
2022/03/03 04:50:09;;;;;;;9.23;8.13;;;;;;;;;;4972490;28;20378;-72
2022/03/03 04:52:36;;;;;;;10.13;7.68;;;;;;;;;;4969537;28;20205;-71
2022/03/03 04:55:05;;;;;;;8.80;7.90;;;;;;;;;;4969365;28;20589;-71
2022/03/03 04:57:32;;;;;;;9.68;8.65;;;;;;;;;;4967558;28;20294;-71
2022/03/03 04:59:59;;;;;;;9.10;8.15;;;;;;;;;;4962313;28;20198;-71
2022/03/03 05:02:26;;;;;;;9.10;7.75;;;;;;;;;;4964612;28;20605;-72
2022/03/03 05:04:53;;;;;;;11.77;8.35;;;;;;;;;;4970569;28;20198;-71
2022/03/03 05:07:20;;;;;;;9.65;8.10;;;;;;;;;;4972006;28;20615;-73
2022/03/03 05:09:47;;;;;;;9.02;7.78;;;;;;;;;;4967316;28;20217;-71
2022/03/03 05:12:16;;;;;;;11.98;8.52;;;;;;;;;;4964471;28;20205;-72
2022/03/03 05:14:43;;;;;;;10.85;8.10;;;;;;;;;;4967866;28;20220;-72
2022/03/03 05:17:10;;;;;;;8.75;7.55;;;;;;;;;;4968370;28;20212;-71
2022/03/03 05:19:37;;;;;;;11.90;8.75;;;;;;;;;;4969714;28;20201;-72
2022/03/03 05:22:04;;;;;;;9.30;7.30;;;;;;;;;;4962353;28;20688;-72
2022/03/03 05:24:31;;;;;;;13.50;8.52;;;;;;;;;;4966817;28;20213;-72
2022/03/03 05:26:58;;;;;;;10.63;8.40;;;;;;;;;;4963476;28;20222;-72
2022/03/03 05:29:27;;;;;;;10.85;7.88;;;;;;;;;;4968741;28;20201;-72
2022/03/03 05:31:57;;;;;;;10.13;9.02;;;;;;;;;;4968925;28;20289;-72
2022/03/03 05:34:24;;;;;;;13.45;9.38;;;;;;;;;;4960428;28;20194;-72
2022/03/03 05:36:51;;;;;;;15.13;10.35;;;;;;;;;;4966110;28;20209;-71
2022/03/03 05:39:18;;;;;;;14.63;11.35;;;;;;;;;;4966986;28;20256;-71
2022/03/03 05:41:45;;;;;;;13.73;10.95;;;;;;;;;;4970008;28;20209;-71
2022/03/03 05:44:13;;;;;;;13.60;9.35;;;;;;;;;;4966962;28;20600;-71
2022/03/03 05:46:43;;;;;;;10.15;8.35;;;;;;;;;;4967884;28;20308;-72
2022/03/03 05:49:10;;;;;;;14.63;10.43;;;;;;;;;;4967922;28;20296;-71
2022/03/03 05:51:37;;;;;;;13.10;9.40;;;;;;;;;;4978422;28;20208;-72
2022/03/03 05:54:05;;;;;;;14.55;9.57;;;;;;;;;;4973814;28;20202;-70
2022/03/03 05:56:34;;;;;;;14.10;10.27;;;;;;;;;;4971009;28;20209;-71
2022/03/03 05:59:03;;;;;;;13.45;9.40;;;;;;;;;;4969243;28;20201;-71
2022/03/03 06:01:31;;;;;;;13.02;9.43;;;;;;;;;;4968510;28;20201;-72
2022/03/03 06:04:01;;;;;;;12.25;9.25;;;;;;;;;;4972325;28;20610;-72
2022/03/03 06:06:31;;;;;;;15.57;8.90;;;;;;;;;;4965150;28;20213;-72
2022/03/03 06:09:03;;;;;;;13.02;8.55;;;;;;;;;;4966121;28;20317;-72
2022/03/03 06:11:30;;;;;;;12.18;8.45;;;;;;;;;;4971113;28;20201;-72
2022/03/03 06:14:04;;;;;;;13.95;9.75;;;;;;;;;;4969209;28;20205;-72
2022/03/03 06:16:32;;;;;;;11.50;9.65;;;;;;;;;;4965731;28;20735;-72
2022/03/03 06:19:01;;;;;;;14.48;10.20;;;;;;;;;;4964108;28;20558;-71
2022/03/03 06:21:28;;;;;;;13.23;9.10;;;;;;;;;;4954017;28;20206;-71
2022/03/03 06:23:55;;;;;;;15.15;10.20;;;;;;;;;;4964908;28;20210;-71
2022/03/03 06:26:23;;;;;;;11.63;8.63;;;;;;;;;;4964039;28;20271;-72
2022/03/03 06:28:50;;;;;;;12.15;10.00;;;;;;;;;;4960350;28;20229;-72
2022/03/03 06:31:17;;;;;;;13.35;9.48;;;;;;;;;;4970355;28;20703;-71
2022/03/03 06:33:44;;;;;;;11.32;8.68;;;;;;;;;;4968480;28;20205;-72
2022/03/03 06:36:14;;;;;;;13.65;10.00;;;;;;;;;;4966273;28;20201;-72
2022/03/03 06:38:41;;;;;;;14.82;10.40;;;;;;;;;;4964505;28;20197;-71
2022/03/03 06:41:08;;;;;;;13.00;8.23;;;;;;;;;;4969503;28;20560;-72
2022/03/03 06:43:35;;;;;;;12.02;8.82;;;;;;;;;;4966523;28;20424;-72
2022/03/03 06:46:03;;;;;;;12.35;9.07;;;;;;;;;;4973393;28;20193;-73
2022/03/03 06:48:30;;;;;;;11.15;9.00;;;;;;;;;;4971662;28;20688;-71
2022/03/03 06:50:58;;;;;;;13.65;10.35;;;;;;;;;;4978671;28;20637;-71
2022/03/03 06:53:29;;;;;;;12.18;10.23;;;;;;;;;;4964818;28;20620;-70
2022/03/03 06:56:00;;;;;;;13.55;9.40;;;;;;;;;;4970551;28;20291;-73
2022/03/03 06:58:30;;;;;;;14.10;8.60;;;;;;;;;;4969649;28;20632;-72
2022/03/03 07:00:58;;;;;;;13.73;10.25;;;;;;;;;;4966262;28;20194;-73
2022/03/03 07:03:26;;;;;;;11.32;8.15;;;;;;;;;;4968098;28;20209;-71
2022/03/03 07:05:53;;;;;;;11.98;8.95;;;;;;;;;;4969584;28;20285;-71
2022/03/03 07:08:21;;;;;;;11.35;9.10;;;;;;;;;;4963425;28;20230;-72
2022/03/03 07:10:50;;;;;;;12.80;9.50;;;;;;;;;;4968298;28;20202;-71
2022/03/03 07:13:18;;;;;;;10.70;8.75;;;;;;;;;;4964976;28;20592;-71
2022/03/03 07:15:47;;;;;;;9.35;8.32;;;;;;;;;;4961799;28;20252;-71
2022/03/03 07:18:17;;;;;;;11.80;8.45;;;;;;;;;;4967023;28;20197;-72
2022/03/03 07:20:49;;;;;;;10.68;8.60;;;;;;;;;;4963282;28;20209;-72
2022/03/03 07:23:22;;;;;;;9.95;8.95;;;;;;;;;;4968276;28;20193;-72
2022/03/03 07:25:54;;;;;;;12.75;8.85;;;;;;;;;;4967036;28;20251;-72
2022/03/03 07:28:21;;;;;;;10.50;9.48;;;;;;;;;;4969191;28;20976;-72
2022/03/03 07:30:50;;;;;;;10.27;8.82;;;;;;;;;;4962142;28;20264;-73
2022/03/03 07:33:19;;;;;;;13.23;8.93;;;;;;;;;;4969860;28;20197;-72
2022/03/03 07:35:49;;;;;;;12.43;9.23;;;;;;;;;;4975906;28;20198;-73
2022/03/03 07:38:19;;;;;;;11.80;8.13;;;;;;;;;;4965980;28;20202;-73
2022/03/03 07:40:48;;;;;;;11.85;8.57;;;;;;;;;;4962399;28;20567;-74
2022/03/03 07:43:18;;;;;;;8.80;7.90;;;;;;;;;;4961128;28;20201;-72
2022/03/03 07:45:45;;;;;;;12.70;8.82;;;;;;;;;;4966504;28;20205;-73
2022/03/03 07:48:12;;;;;;;12.30;9.20;;;;;;;;;;4969089;28;20225;-72
2022/03/03 07:50:40;;;;;;;13.10;8.73;;;;;;;;;;4973680;28;20201;-72
2022/03/03 07:53:10;;;;;;;10.38;8.85;;;;;;;;;;4966556;28;20214;-72
2022/03/03 07:55:39;;;;;;;9.70;8.65;;;;;;;;;;4960560;28;20194;-74
2022/03/03 07:58:10;;;;;;;12.13;8.80;;;;;;;;;;4962865;28;20201;-74
2022/03/03 08:00:43;;;;;;;9.98;6.97;;;;;;;;;;4965278;28;20222;-74
2022/03/03 08:03:10;;;;;;;9.15;8.05;;;;;;;;;;4970685;28;20214;-74
2022/03/03 08:05:38;;;;;;;10.18;7.65;;;;;;;;;;4966259;28;20198;-74
2022/03/03 08:08:08;;;;;;;13.32;7.95;;;;;;;;;;4957686;28;20704;-75
2022/03/03 08:10:35;;;;;;;10.57;8.48;;;;;;;;;;4970527;28;20285;-73
2022/03/03 08:13:02;;;;;;;15.00;8.38;;;;;;;;;;4967961;28;20202;-73
2022/03/03 08:15:30;;;;;;;10.07;8.45;;;;;;;;;;4962622;28;20202;-73
2022/03/03 08:17:58;;;;;;;14.13;8.02;;;;;;;;;;4959322;28;20210;-73
2022/03/03 08:20:25;;;;;;;11.88;8.85;;;;;;;;;;4961405;28;20194;-74
2022/03/03 08:22:52;;;;;;;13.38;9.20;;;;;;;;;;4967725;28;20206;-74
2022/03/03 08:25:19;;;;;;;10.93;8.48;;;;;;;;;;4966773;28;20232;-73
2022/03/03 08:27:47;;;;;;;10.20;8.65;;;;;;;;;;4959703;28;20326;-73
2022/03/03 08:30:14;;;;;;;13.48;9.18;;;;;;;;;;4973475;28;20200;-74
2022/03/03 08:32:42;;;;;;;11.55;8.80;;;;;;;;;;4962898;28;20206;-74
2022/03/03 08:35:15;;;;;;;11.90;9.38;;;;;;;;;;4967326;28;20194;-73
2022/03/03 08:37:44;;;;;;;10.52;9.02;;;;;;;;;;4964680;28;20210;-74
2022/03/03 08:40:12;;;;;;;12.32;8.38;;;;;;;;;;4961499;28;20252;-74
2022/03/03 08:42:40;;;;;;;10.45;9.15;;;;;;;;;;4966290;28;20561;-73
2022/03/03 08:45:10;;;;;;;10.40;8.32;;;;;;;;;;4972157;28;20719;-74
2022/03/03 08:47:37;;;;;;;9.73;7.70;;;;;;;;;;4969270;28;20221;-72
2022/03/03 08:50:08;;;;;;;13.05;8.88;;;;;;;;;;4971609;28;20201;-73
2022/03/03 08:52:39;;;;;;;8.40;7.53;;;;;;;;;;4964002;28;20234;-74
2022/03/03 08:55:06;;;;;;;8.48;6.65;;;;;;;;;;4965425;28;20201;-75
2022/03/03 08:57:33;;;;;;;11.02;8.50;;;;;;;;;;4962216;28;20213;-73
2022/03/03 09:00:00;;;;;;;15.32;9.27;;;;;;;;;;4967254;28;20198;-73
2022/03/03 09:02:28;;;;;;;11.13;8.68;;;;;;;;;;4967657;28;20200;-74
2022/03/03 09:04:55;;;;;;;13.23;8.75;;;;;;;;;;4971229;28;20205;-74
2022/03/03 09:07:22;;;;;;;10.48;8.60;;;;;;;;;;4969211;28;20221;-72
2022/03/03 09:09:50;;;;;;;12.80;9.63;;;;;;;;;;4972455;28;20194;-74
2022/03/03 09:12:17;;;;;;;11.68;8.70;;;;;;;;;;4967982;28;20253;-73
2022/03/03 09:14:44;;;;;;;10.55;8.52;;;;;;;;;;4973204;28;20209;-73
2022/03/03 09:17:11;;;;;;;10.95;8.73;;;;;;;;;;4966208;28;20723;-72
2022/03/03 09:19:38;;;;;;;12.98;10.40;;;;;;;;;;4974181;28;20196;-73
2022/03/03 09:22:05;;;;;;;13.88;9.52;;;;;;;;;;4977054;28;20201;-72
2022/03/03 09:24:32;;;;;;;11.30;8.80;;;;;;;;;;4973628;28;20221;-73
2022/03/03 09:27:01;;;;;;;12.20;9.10;;;;;;;;;;4974140;28;20194;-72
2022/03/03 09:29:28;;;;;;;10.75;8.50;;;;;;;;;;4972519;28;20703;-72
2022/03/03 09:31:55;;;;;;;10.75;8.98;;;;;;;;;;4965903;28;20656;-72
2022/03/03 09:34:23;;;;;;;10.90;9.27;;;;;;;;;;4974897;28;20194;-72
2022/03/03 09:36:50;;;;;;;13.43;9.75;;;;;;;;;;4972370;28;20200;-72
2022/03/03 09:39:17;;;;;;;11.20;9.95;;;;;;;;;;4967864;28;20253;-72
2022/03/03 09:41:44;;;;;;;8.75;7.85;;;;;;;;;;4973847;28;20248;-72
2022/03/03 09:44:14;;;;;;;9.75;8.48;;;;;;;;;;4972851;28;20208;-72
2022/03/03 09:46:41;;;;;;;11.45;8.93;;;;;;;;;;4969604;28;20197;-73
2022/03/03 09:49:08;;;;;;;14.88;9.65;;;;;;;;;;4967271;28;20217;-72
2022/03/03 09:51:35;;;;;;;16.08;9.50;;;;;;;;;;4968902;28;20193;-72
2022/03/03 09:54:02;;;;;;;10.85;8.55;;;;;;;;;;4973710;28;20202;-72
2022/03/03 09:56:29;;;;;;;11.75;10.30;;;;;;;;;;4971028;28;20202;-73
2022/03/03 09:58:56;;;;;;;9.13;8.32;;;;;;;;;;4976533;28;20197;-74
2022/03/03 10:01:28;;;;;;;10.20;8.65;;;;;;;;;;4967659;28;20198;-73
2022/03/03 10:03:55;;;;;;;18.35;9.13;;;;;;;;;;4972287;28;20232;-73
2022/03/03 10:06:23;;;;;;;13.13;9.18;;;;;;;;;;4968549;28;20201;-72
2022/03/03 10:08:51;;;;;;;9.85;8.07;;;;;;;;;;4967041;28;20252;-73
2022/03/03 10:11:18;;;;;;;10.65;8.73;;;;;;;;;;4975813;28;20202;-73
2022/03/03 10:13:46;;;;;;;13.13;8.85;;;;;;;;;;4964448;28;20205;-71
2022/03/03 10:16:19;;;;;;;11.40;8.35;;;;;;;;;;4967715;28;20668;-74
2022/03/03 10:18:53;;;;;;;13.45;8.98;;;;;;;;;;4970516;28;20194;-73
2022/03/03 10:21:20;;;;;;;13.70;9.32;;;;;;;;;;4971362;28;20204;-74
2022/03/03 10:23:48;;;;;;;13.88;7.97;;;;;;;;;;4970217;28;20233;-79
2022/03/03 10:26:15;;;;;;;12.93;9.20;;;;;;;;;;4962276;28;20190;-79
2022/03/03 10:28:48;;;;;;;10.55;7.90;;;;;;;;;;4964876;28;20215;-77
2022/03/03 10:31:16;;;;;;;9.80;8.90;;;;;;;;;;4971536;28;20189;-80
2022/03/03 10:33:46;;;;;;;10.05;7.25;;;;;;;;;;4968655;28;20193;-75
2022/03/03 10:36:16;;;;;;;10.93;7.85;;;;;;;;;;4969077;28;20206;-74
2022/03/03 10:38:47;;;;;;;9.63;8.32;;;;;;;;;;4971093;28;20208;-74
2022/03/03 10:41:30;;;;;;;8.90;7.93;;;;;;;;;;4972897;28;20194;-73
2022/03/03 10:43:58;;;;;;;10.02;7.45;;;;;;;;;;4964403;28;20213;-73
2022/03/03 10:46:25;;;;;;;12.68;8.50;;;;;;;;;;4968761;28;20197;-74
2022/03/03 10:48:52;;;;;;;12.32;7.38;;;;;;;;;;4971603;28;20616;-74
2022/03/03 10:51:24;;;;;;;14.38;9.63;;;;;;;;;;4967918;28;20190;-74
2022/03/03 10:53:51;;;;;;;17.95;8.75;;;;;;;;;;4968039;28;20202;-74
2022/03/03 10:56:19;;;;;;;12.48;7.72;;;;;;;;;;4967534;28;20287;-74
2022/03/03 10:58:51;;;;;;;17.20;8.38;;;;;;;;;;4970306;28;20205;-74
2022/03/03 11:01:20;;;;;;;12.82;8.10;;;;;;;;;;4974070;28;20189;-74
2022/03/03 11:03:49;;;;;;;11.18;8.40;;;;;;;;;;4971860;28;20198;-74
2022/03/03 11:06:17;;;;;;;9.73;8.70;;;;;;;;;;4978788;28;20703;-74
2022/03/03 11:08:46;;;;;;;8.88;6.75;;;;;;;;;;4966955;28;20217;-74
2022/03/03 11:11:13;;;;;;;8.85;7.53;;;;;;;;;;4967354;28;20532;-74
2022/03/03 11:13:40;;;;;;;13.05;8.65;;;;;;;;;;4971041;28;20552;-75
2022/03/03 11:16:07;;;;;;;9.05;7.47;;;;;;;;;;4974130;28;20197;-74
2022/03/03 11:18:35;;;;;;;10.93;7.68;;;;;;;;;;4969799;28;20686;-74
2022/03/03 11:21:02;;;;;;;11.82;8.05;;;;;;;;;;4974190;28;20568;-74
2022/03/03 11:23:38;;;;;;;9.82;8.10;;;;;;;;;;4970250;28;20233;-74
2022/03/03 11:26:08;;;;;;;7.68;6.80;;;;;;;;;;4966608;28;20204;-74
2022/03/03 11:28:35;;;;;;;8.82;6.95;;;;;;;;;;4971706;28;20227;-74
2022/03/03 11:31:17;;;;;;;13.95;8.80;;;;;;;;;;4969500;28;20210;-75
2022/03/03 11:33:44;;;;;;;6.88;6.18;;;;;;;;;;4967034;28;20197;-74
2022/03/03 11:36:20;;;;;;;8.63;7.07;;;;;;;;;;4971014;28;20196;-75
2022/03/03 11:38:52;;;;;;;8.63;6.47;;;;;;;;;;4967007;28;20206;-74
2022/03/03 11:41:23;;;;;;;9.07;8.15;;;;;;;;;;4967760;28;20585;-74
2022/03/03 11:43:59;;;;;;;10.02;7.18;;;;;;;;;;4966271;28;20198;-74
2022/03/03 11:46:45;;;;;;;9.68;6.75;;;;;;;;;;4965076;28;20204;-75
2022/03/03 11:49:12;;;;;;;11.38;7.72;;;;;;;;;;4963721;28;20228;-74
2022/03/03 11:51:39;;;;;;;10.18;7.43;;;;;;;;;;4955810;28;20201;-74
2022/03/03 11:54:10;;;;;;;7.50;6.80;;;;;;;;;;4965393;28;20200;-74
2022/03/03 11:56:59;;;;;;;10.40;7.47;;;;;;;;;;4971538;28;20197;-75
2022/03/03 11:59:33;;;;;;;9.07;7.65;;;;;;;;;;4970393;28;20729;-76
2022/03/03 12:02:02;;;;;;;10.35;8.27;;;;;;;;;;4975242;28;20197;-74
2022/03/03 12:04:29;;;;;;;8.48;7.22;;;;;;;;;;4980991;28;20217;-74
2022/03/03 12:06:56;;;;;;;11.82;7.00;;;;;;;;;;4968758;28;20206;-81
2022/03/03 12:09:26;;;;;;;7.78;6.95;;;;;;;;;;4975181;28;20221;-73
2022/03/03 12:12:08;;;;;;;8.60;7.18;;;;;;;;;;4973316;28;20198;-73
2022/03/03 12:14:36;;;;;;;10.80;7.40;;;;;;;;;;4975945;28;20444;-73
2022/03/03 12:17:21;;;;;;;11.10;7.95;;;;;;;;;;4969266;28;20233;-73
2022/03/03 12:19:49;;;;;;;8.73;7.32;;;;;;;;;;4970869;28;20201;-73
2022/03/03 12:22:25;;;;;;;12.40;8.93;;;;;;;;;;4964431;28;20194;-73
2022/03/03 12:24:52;;;;;;;8.45;6.88;;;;;;;;;;4975157;28;20221;-73
2022/03/03 12:27:21;;;;;;;9.38;6.95;;;;;;;;;;4971175;28;20197;-74
2022/03/03 12:29:51;;;;;;;9.98;7.28;;;;;;;;;;4964979;28;20236;-74
2022/03/03 12:32:41;;;;;;;7.50;6.60;;;;;;;;;;4969142;28;20205;-74
2022/03/03 12:35:13;;;;;;;7.93;7.13;;;;;;;;;;4975050;28;20233;-75
2022/03/03 12:37:45;;;;;;;10.00;7.72;;;;;;;;;;4965512;28;20201;-74
2022/03/03 12:40:13;;;;;;;9.68;8.15;;;;;;;;;;4970700;28;20208;-74
2022/03/03 12:42:43;;;;;;;10.65;7.13;;;;;;;;;;4964087;28;20248;-73
2022/03/03 12:45:11;;;;;;;8.30;6.93;;;;;;;;;;4967878;28;20198;-74
2022/03/03 12:47:39;;;;;;;8.15;6.90;;;;;;;;;;4969143;28;20644;-75
2022/03/03 12:50:07;;;;;;;8.57;7.70;;;;;;;;;;4970288;28;20312;-74
2022/03/03 12:52:34;;;;;;;8.82;7.07;;;;;;;;;;4960840;28;20214;-76
2022/03/03 12:55:01;;;;;;;9.15;6.82;;;;;;;;;;4967589;28;20209;-75
2022/03/03 12:57:30;;;;;;;14.15;7.00;;;;;;;;;;4968735;28;20725;-75
2022/03/03 12:59:59;;;;;;;9.68;7.03;;;;;;;;;;4970893;28;20280;-73
2022/03/03 13:02:26;;;;;;;10.98;7.20;;;;;;;;;;4969369;28;20264;-73
2022/03/03 13:04:53;;;;;;;8.65;6.82;;;;;;;;;;4974548;28;20197;-74
2022/03/03 13:07:21;;;;;;;11.35;6.93;;;;;;;;;;4978909;28;20608;-75
2022/03/03 13:09:55;;;;;;;8.82;6.45;;;;;;;;;;4968729;28;20262;-75
2022/03/03 13:12:22;;;;;;;7.95;6.68;;;;;;;;;;4967259;28;20608;-76
2022/03/03 13:14:56;;;;;;;11.02;8.07;;;;;;;;;;4970837;28;20198;-74
2022/03/03 13:17:25;;;;;;;9.20;7.18;;;;;;;;;;4969473;28;20618;-75
2022/03/03 13:19:52;;;;;;;7.20;6.05;;;;;;;;;;4975463;28;20896;-74
2022/03/03 13:22:19;;;;;;;8.63;7.00;;;;;;;;;;4971332;28;20202;-74
2022/03/03 13:24:47;;;;;;;8.70;7.15;;;;;;;;;;4976419;28;20260;-74
2022/03/03 13:27:14;;;;;;;9.32;6.60;;;;;;;;;;4968896;28;20201;-74
2022/03/03 13:29:42;;;;;;;8.32;6.38;;;;;;;;;;4969621;28;20575;-75
2022/03/03 13:32:13;;;;;;;7.57;6.55;;;;;;;;;;4969506;28;20193;-74
2022/03/03 13:34:45;;;;;;;8.10;6.70;;;;;;;;;;4970570;28;20248;-74
2022/03/03 13:37:16;;;;;;;7.43;5.93;;;;;;;;;;4965983;28;20414;-75
2022/03/03 13:39:43;;;;;;;7.60;6.20;;;;;;;;;;4971070;28;20206;-74
2022/03/03 13:42:11;;;;;;;6.28;5.63;;;;;;;;;;4972432;28;20210;-74
2022/03/03 13:44:39;;;;;;;7.70;6.78;;;;;;;;;;4961339;28;20665;-75
2022/03/03 13:47:07;;;;;;;7.88;6.63;;;;;;;;;;4970489;28;20205;-73
2022/03/03 13:49:35;;;;;;;8.85;6.13;;;;;;;;;;4971159;28;20222;-74
2022/03/03 13:52:08;;;;;;;9.15;6.95;;;;;;;;;;4971416;28;20216;-74
2022/03/03 13:54:42;;;;;;;7.68;6.07;;;;;;;;;;4966678;28;20472;-73
2022/03/03 13:57:09;;;;;;;7.55;6.60;;;;;;;;;;4970881;28;20244;-75
2022/03/03 13:59:51;;;;;;;9.25;5.22;;;;;;;;;;4971128;28;20198;-76
2022/03/03 14:02:19;;;;;;;8.27;6.70;;;;;;;;;;4960405;28;20219;-74
2022/03/03 14:04:57;;;;;;;9.70;6.30;;;;;;;;;;4974081;28;20529;-74
2022/03/03 14:07:29;;;;;;;8.52;6.75;;;;;;;;;;4968348;28;20197;-74
2022/03/03 14:09:56;;;;;;;7.63;6.82;;;;;;;;;;4963815;28;20225;-74
2022/03/03 14:12:24;;;;;;;8.93;7.07;;;;;;;;;;4972781;28;20198;-74
2022/03/03 14:14:51;;;;;;;11.70;6.55;;;;;;;;;;4973410;28;20200;-75
2022/03/03 14:17:18;;;;;;;7.18;5.97;;;;;;;;;;4970148;28;20201;-74
2022/03/03 14:19:46;;;;;;;10.55;7.43;;;;;;;;;;4968016;28;20365;-74
2022/03/03 14:22:17;;;;;;;7.75;6.50;;;;;;;;;;4967221;28;20223;-75
2022/03/03 14:24:46;;;;;;;11.90;7.25;;;;;;;;;;4968657;28;20581;-74
2022/03/03 14:27:13;;;;;;;7.18;6.55;;;;;;;;;;4964391;28;20205;-74
2022/03/03 14:29:40;;;;;;;7.50;6.50;;;;;;;;;;4971305;28;20225;-74
2022/03/03 14:32:08;;;;;;;8.63;6.60;;;;;;;;;;4971642;28;20204;-75
2022/03/03 14:34:35;;;;;;;9.23;6.22;;;;;;;;;;4968607;28;20193;-75
2022/03/03 14:37:02;;;;;;;11.40;7.43;;;;;;;;;;4970879;28;20201;-73
2022/03/03 14:39:29;;;;;;;12.45;6.70;;;;;;;;;;4964490;28;20213;-74
2022/03/03 14:41:58;;;;;;;9.93;5.72;;;;;;;;;;4971202;28;20209;-76
2022/03/03 14:44:25;;;;;;;7.22;5.57;;;;;;;;;;4971311;28;20194;-74